Time;durP1;ratioP1;P1;durP2;ratioP2;P2;SDS_P1;SDS_P2;PMS_P1;PMS_P2;Temp;Humidity;BMP_temperature;BMP_pressure;BME280_temperature;BME280_humidity;BME280_pressure;Samples;Min_cycle;Max_cycle;Signal;HPM_P1;HPM_P2
2021/11/28 00:01:43;;;;;;;4.10;2.47;;;;;;;2.13;80.72;93710.25;4824804;29;20046;-61
2021/11/28 00:04:13;;;;;;;4.25;2.40;;;;;;;2.18;79.62;93712.69;4830993;29;20428;-55
2021/11/28 00:06:50;;;;;;;6.43;3.05;;;;;;;1.76;82.33;93703.00;4840554;29;20098;-56
2021/11/28 00:12:24;;;;;;;5.07;2.53;;;;;;;1.54;82.15;93704.16;4832009;29;20042;-61
2021/11/28 00:14:56;;;;;;;4.60;2.50;;;;;;;1.45;82.55;93706.13;4825821;29;20049;-57
2021/11/28 00:17:24;;;;;;;5.78;2.63;;;;;;;1.14;84.33;93694.06;4838628;29;20050;-54
2021/11/28 00:19:51;;;;;;;6.50;3.15;;;;;;;1.89;80.55;93693.13;4827163;29;20454;-56
2021/11/28 00:22:18;;;;;;;4.47;2.60;;;;;;;1.98;80.25;93693.81;4830013;29;20492;-62
2021/11/28 00:24:45;;;;;;;6.05;3.70;;;;;;;1.94;79.48;93692.13;4829907;29;20046;-63
2021/11/28 00:27:12;;;;;;;5.53;3.05;;;;;;;2.20;78.99;93689.13;4829339;29;20038;-56
2021/11/28 00:29:40;;;;;;;4.93;2.22;;;;;;;2.35;78.14;93683.13;4835084;29;20054;-55
2021/11/28 00:32:07;;;;;;;4.95;2.55;;;;;;;2.09;78.92;93678.91;4854729;29;20121;-57
2021/11/28 00:34:35;;;;;;;3.88;2.33;;;;;;;1.84;79.12;93690.66;4824190;29;20050;-62
2021/11/28 00:37:02;;;;;;;3.80;2.30;;;;;;;1.61;80.56;93695.63;4840355;29;20049;-61
2021/11/28 00:39:29;;;;;;;4.97;2.30;;;;;;;1.16;81.95;93683.84;4827665;29;20072;-62
2021/11/28 00:41:56;;;;;;;4.95;2.33;;;;;;;1.12;83.06;93679.50;4840930;29;20532;-60
2021/11/28 00:44:29;;;;;;;4.32;2.30;;;;;;;1.23;83.11;93679.88;4839091;29;20532;-62
2021/11/28 00:46:57;;;;;;;5.15;3.03;;;;;;;1.19;83.20;93695.72;4841274;29;20049;-61
2021/11/28 00:49:26;;;;;;;4.43;2.42;;;;;;;1.01;83.19;93697.78;4838820;29;20054;-62
2021/11/28 00:51:56;;;;;;;4.22;2.28;;;;;;;0.96;83.63;93686.53;4847607;24;20046;-58
2021/11/28 00:54:25;;;;;;;4.00;2.47;;;;;;;1.87;80.87;93695.34;4837480;29;20038;-57
2021/11/28 00:56:52;;;;;;;4.97;2.67;;;;;;;2.07;79.62;93697.13;4835638;29;20049;-57
2021/11/28 00:59:19;;;;;;;7.32;3.38;;;;;;;1.32;82.04;93699.22;4820080;29;20083;-58
2021/11/28 01:01:46;;;;;;;6.13;3.33;;;;;;;2.03;80.30;93693.56;4831175;29;20054;-58
2021/11/28 01:04:15;;;;;;;6.85;3.78;;;;;;;2.13;79.37;93702.25;4804837;29;20051;-58
2021/11/28 01:06:44;;;;;;;6.57;3.30;;;;;;;2.24;78.30;93703.34;4817696;29;20072;-58
2021/11/28 01:09:12;;;;;;;4.47;2.83;;;;;;;2.62;77.11;93699.56;4819396;29;20042;-58
2021/11/28 01:11:40;;;;;;;6.68;3.25;;;;;;;2.24;77.65;93706.03;4807294;29;20412;-57
2021/11/28 01:14:07;;;;;;;5.45;2.65;;;;;;;2.88;75.90;93707.97;4818119;29;20038;-58
2021/11/28 01:16:34;;;;;;;4.50;2.63;;;;;;;2.42;77.53;93718.03;4819432;29;20054;-58
2021/11/28 01:19:03;;;;;;;4.50;2.65;;;;;;;2.39;78.02;93732.06;4813146;29;20042;-58
2021/11/28 01:21:31;;;;;;;3.97;2.40;;;;;;;2.08;79.33;93722.72;4835919;29;20050;-57
2021/11/28 01:23:58;;;;;;;5.22;2.38;;;;;;;1.98;79.31;93714.34;4830375;29;20050;-56
2021/11/28 01:26:31;;;;;;;4.20;2.30;;;;;;;1.86;79.52;93707.91;4828402;29;20043;-57
2021/11/28 01:28:58;;;;;;;5.38;2.35;;;;;;;2.37;78.26;93710.25;4819162;29;20050;-58
2021/11/28 01:31:27;;;;;;;2.65;1.88;;;;;;;2.53;77.74;93718.34;4810437;29;20049;-58
2021/11/28 01:33:54;;;;;;;3.83;2.00;;;;;;;1.81;80.78;93724.09;4819061;29;20073;-57
2021/11/28 01:36:21;;;;;;;4.65;2.53;;;;;;;1.58;82.22;93725.59;4822076;29;20054;-59
2021/11/28 01:38:49;;;;;;;3.70;2.13;;;;;;;1.49;83.59;93736.34;4832437;29;20192;-58
2021/11/28 01:41:16;;;;;;;4.07;2.60;;;;;;;1.46;84.23;93733.56;4815903;29;20129;-58
2021/11/28 01:43:44;;;;;;;3.72;2.08;;;;;;;1.42;84.94;93741.44;4812724;29;20046;-59
2021/11/28 01:46:11;;;;;;;3.38;1.92;;;;;;;1.36;85.34;93740.84;4813661;29;20050;-57
2021/11/28 01:48:38;;;;;;;3.95;2.25;;;;;;;1.29;86.33;93743.25;4805433;29;20069;-59
2021/11/28 01:51:06;;;;;;;3.80;2.20;;;;;;;1.29;86.60;93747.81;4839925;29;20065;-58
2021/11/28 01:53:34;;;;;;;3.50;2.28;;;;;;;1.18;87.52;93752.78;4809587;29;20407;-59
2021/11/28 01:56:03;;;;;;;3.42;1.90;;;;;;;1.19;87.72;93737.56;4819845;29;20058;-59
2021/11/28 01:58:36;;;;;;;3.05;1.77;;;;;;;1.21;88.26;93741.47;4819831;29;20072;-58
2021/11/28 02:01:07;;;;;;;3.72;2.08;;;;;;;1.15;88.06;93735.56;4817649;29;20396;-59
2021/11/28 02:03:38;;;;;;;3.75;1.80;;;;;;;1.01;88.65;93737.72;4818527;29;20039;-59
2021/11/28 02:06:07;;;;;;;3.38;1.80;;;;;;;0.98;88.90;93733.03;4821006;29;20130;-59
2021/11/28 02:08:36;;;;;;;3.10;1.70;;;;;;;1.05;88.84;93733.28;4807619;29;20107;-59
2021/11/28 02:11:04;;;;;;;2.22;1.35;;;;;;;1.00;89.36;93733.47;4841447;29;20117;-59
2021/11/28 02:13:33;;;;;;;3.50;1.67;;;;;;;0.96;89.05;93745.88;4834893;29;20042;-60
2021/11/28 02:16:07;;;;;;;2.90;1.50;;;;;;;0.88;89.43;93746.75;4833726;29;20083;-59
2021/11/28 02:18:36;;;;;;;3.45;1.65;;;;;;;0.95;89.34;93744.34;4820719;29;20043;-61
2021/11/28 02:21:06;;;;;;;3.30;1.55;;;;;;;1.02;88.65;93739.25;4825712;29;20084;-61
2021/11/28 02:23:36;;;;;;;3.40;1.38;;;;;;;1.05;88.55;93721.88;4849749;29;20405;-58
2021/11/28 02:26:06;;;;;;;4.03;1.77;;;;;;;1.15;88.32;93724.91;4834433;29;20099;-59
2021/11/28 02:28:36;;;;;;;2.90;1.52;;;;;;;1.55;86.56;93724.38;4826720;29;20145;-59
2021/11/28 02:31:04;;;;;;;2.95;1.50;;;;;;;1.23;87.39;93712.59;4839680;29;20080;-61
2021/11/28 02:33:31;;;;;;;2.00;1.40;;;;;;;1.42;87.04;93711.34;4834237;29;20046;-57
2021/11/28 02:35:58;;;;;;;3.40;1.77;;;;;;;1.42;86.42;93706.78;4826769;29;20050;-58
2021/11/28 02:38:26;;;;;;;3.78;1.70;;;;;;;1.33;87.08;93706.09;4842684;29;20050;-60
2021/11/28 02:40:53;;;;;;;3.38;1.90;;;;;;;1.16;87.33;93694.50;4830081;29;20108;-58
2021/11/28 02:43:22;;;;;;;2.25;1.45;;;;;;;1.58;86.12;93697.06;4812345;29;20044;-59
2021/11/28 02:45:49;;;;;;;3.63;1.77;;;;;;;1.68;85.34;93706.53;4841744;29;20070;-59
2021/11/28 02:48:17;;;;;;;2.63;1.45;;;;;;;1.27;86.92;93718.84;4824011;29;20042;-59
2021/11/28 02:50:46;;;;;;;2.95;1.40;;;;;;;1.07;87.54;93715.13;4841073;29;20051;-59
2021/11/28 02:53:14;;;;;;;3.53;1.80;;;;;;;1.19;86.94;93705.59;4829409;29;20042;-59
2021/11/28 02:55:50;;;;;;;2.58;1.55;;;;;;;1.38;86.32;93709.34;4827628;29;20052;-60
2021/11/28 02:58:20;;;;;;;4.25;1.88;;;;;;;1.54;85.55;93695.41;4814730;29;20389;-59
2021/11/28 03:00:53;;;;;;;3.28;1.65;;;;;;;2.08;83.76;93681.91;4810568;29;20426;-60
2021/11/28 03:03:20;;;;;;;3.95;1.90;;;;;;;1.96;83.13;93673.91;4796682;29;20458;-60
2021/11/28 03:05:50;;;;;;;5.32;2.35;;;;;;;1.35;85.31;93678.03;4830383;29;20058;-58
2021/11/28 03:08:17;;;;;;;4.13;1.88;;;;;;;1.69;84.10;93669.97;4836276;29;20043;-59
2021/11/28 03:10:48;;;;;;;3.58;1.73;;;;;;;1.94;83.12;93671.56;4823801;29;20103;-59
2021/11/28 03:13:26;;;;;;;2.30;1.50;;;;;;;1.46;84.16;93667.72;4850133;29;20544;-59
2021/11/28 03:15:56;;;;;;;3.67;1.73;;;;;;;1.53;84.29;93659.22;4827251;29;20137;-59
2021/11/28 03:18:25;;;;;;;6.10;1.98;;;;;;;1.50;84.38;93663.31;4823426;29;20527;-59
2021/11/28 03:20:56;;;;;;;3.40;1.77;;;;;;;1.36;85.00;93668.13;4844267;29;20099;-59
2021/11/28 03:23:27;;;;;;;4.30;1.88;;;;;;;1.20;86.09;93669.88;4818580;29;20039;-59
2021/11/28 03:26:15;;;;;;;3.50;1.75;;;;;;;1.49;85.02;93661.72;4823784;29;20121;-59
2021/11/28 03:28:58;;;;;;;4.07;1.92;;;;;;;1.39;84.63;93659.50;4817356;29;20050;-58
2021/11/28 03:31:47;;;;;;;3.50;1.90;;;;;;;1.30;85.50;93659.59;4821128;29;20160;-59
2021/11/28 03:34:33;;;;;;;3.88;2.28;;;;;;;1.45;85.07;93652.84;4831007;29;20565;-59
2021/11/28 03:37:01;;;;;;;3.80;2.10;;;;;;;1.38;85.13;93648.06;4841414;29;20480;-59
2021/11/28 03:39:30;;;;;;;2.88;1.85;;;;;;;1.70;83.77;93661.66;4837996;29;20132;-59
2021/11/28 03:42:02;;;;;;;3.80;1.90;;;;;;;1.91;82.79;93658.91;4838213;29;20053;-59
2021/11/28 03:44:30;;;;;;;4.80;1.70;;;;;;;1.82;83.71;93652.88;4821086;29;20113;-59
2021/11/28 03:47:18;;;;;;;3.50;2.10;;;;;;;2.12;82.17;93648.13;4823275;29;20109;-59
2021/11/28 03:49:50;;;;;;;4.13;2.25;;;;;;;1.86;82.46;93656.47;4829350;29;20040;-59
2021/11/28 03:52:18;;;;;;;4.82;2.05;;;;;;;1.51;84.27;93664.06;4829998;29;20054;-59
2021/11/28 03:54:45;;;;;;;3.00;1.90;;;;;;;1.57;84.95;93660.09;4821153;29;20047;-59
2021/11/28 03:57:16;;;;;;;3.50;1.85;;;;;;;1.77;83.75;93653.91;4853070;29;20087;-59
2021/11/28 03:59:43;;;;;;;4.03;1.90;;;;;;;1.48;85.05;93654.84;4840651;29;20052;-59
2021/11/28 04:02:10;;;;;;;7.03;2.47;;;;;;;1.46;85.03;93657.06;4807171;29;20093;-59
2021/11/28 04:04:37;;;;;;;2.90;2.10;;;;;;;1.99;83.27;93651.91;4833246;29;20464;-59
2021/11/28 04:07:18;;;;;;;3.33;2.08;;;;;;;2.15;82.51;93652.03;4819010;29;20195;-59
2021/11/28 04:09:46;;;;;;;4.63;2.17;;;;;;;1.97;83.10;93656.78;4838825;29;20042;-59
2021/11/28 04:12:14;;;;;;;4.10;2.47;;;;;;;2.16;82.30;93650.91;4833670;29;20111;-59
2021/11/28 04:14:41;;;;;;;4.32;2.30;;;;;;;0.79;87.94;93644.88;4849132;29;20083;-59
2021/11/28 04:17:10;;;;;;;3.92;2.40;;;;;;;0.85;89.24;93648.91;4824707;29;20112;-59
2021/11/28 04:19:43;;;;;;;2.70;1.85;;;;;;;1.73;85.22;93661.00;4841962;29;20038;-59
2021/11/28 04:22:10;;;;;;;3.67;2.03;;;;;;;1.44;85.33;93656.63;4823211;29;20065;-59
2021/11/28 04:24:40;;;;;;;4.47;2.20;;;;;;;0.96;86.98;93658.03;4834795;29;20069;-59
2021/11/28 04:27:07;;;;;;;5.38;2.45;;;;;;;1.15;86.89;93647.66;4840475;29;20128;-58
2021/11/28 04:29:34;;;;;;;2.70;1.83;;;;;;;1.15;86.54;93655.66;4836669;29;20053;-58
2021/11/28 04:32:02;;;;;;;3.17;1.95;;;;;;;1.11;86.92;93654.75;4836766;29;20047;-58
2021/11/28 04:34:30;;;;;;;3.92;2.00;;;;;;;1.13;86.58;93644.53;4824364;29;20039;-58
2021/11/28 04:36:58;;;;;;;3.58;1.80;;;;;;;1.03;87.42;93652.94;4821206;29;20437;-58
2021/11/28 04:39:25;;;;;;;2.92;2.03;;;;;;;1.02;87.95;93648.72;4823019;29;20050;-58
2021/11/28 04:41:52;;;;;;;3.10;1.90;;;;;;;0.97;87.96;93656.13;4819026;29;20129;-56
2021/11/28 04:44:22;;;;;;;3.60;2.00;;;;;;;1.15;87.75;93663.66;4818583;29;20050;-57
2021/11/28 04:46:50;;;;;;;4.38;2.17;;;;;;;0.76;89.44;93661.50;4836457;29;20053;-56
2021/11/28 04:49:17;;;;;;;4.03;2.30;;;;;;;1.09;87.71;93658.84;4825565;29;20049;-56
2021/11/28 04:51:45;;;;;;;4.05;2.30;;;;;;;1.21;87.03;93653.56;4840734;29;20073;-56
2021/11/28 04:54:13;;;;;;;3.67;2.58;;;;;;;1.22;86.69;93651.69;4832849;29;20573;-57
2021/11/28 04:56:40;;;;;;;4.07;2.10;;;;;;;1.52;85.94;93650.41;4819758;29;20501;-59
2021/11/28 04:59:07;;;;;;;5.65;2.22;;;;;;;1.91;83.74;93652.78;4832130;29;20055;-58
2021/11/28 05:01:40;;;;;;;5.32;1.98;;;;;;;1.41;86.15;93649.28;4827175;29;20103;-59
2021/11/28 05:04:18;;;;;;;4.90;2.10;;;;;;;1.52;85.86;93650.41;4806348;29;20042;-59
2021/11/28 05:06:45;;;;;;;6.60;2.05;;;;;;;1.55;84.90;93659.63;4825270;29;20515;-59
2021/11/28 05:09:35;;;;;;;3.55;2.20;;;;;;;1.04;86.96;93665.16;4832487;29;20051;-59
2021/11/28 05:12:02;;;;;;;3.10;2.00;;;;;;;0.91;87.97;93671.53;4821122;29;20125;-58
2021/11/28 05:14:30;;;;;;;3.25;2.10;;;;;;;0.98;87.45;93663.03;4822968;29;20520;-59
2021/11/28 05:16:57;;;;;;;3.25;2.00;;;;;;;1.35;85.67;93655.94;4844016;29;20046;-60
2021/11/28 05:19:57;;;;;;;4.07;2.30;;;;;;;1.34;85.69;93668.47;4836436;29;20057;-60
2021/11/28 05:22:43;;;;;;;3.95;2.20;;;;;;;1.13;86.77;93668.50;4818240;29;20412;-60
2021/11/28 05:25:11;;;;;;;4.57;2.03;;;;;;;1.58;85.10;93673.06;4823471;29;20121;-60
2021/11/28 05:27:38;;;;;;;4.35;2.35;;;;;;;1.26;86.40;93673.88;4853683;29;20054;-59
2021/11/28 05:30:07;;;;;;;3.70;2.10;;;;;;;1.13;86.85;93676.50;4828846;29;20125;-60
2021/11/28 05:32:53;;;;;;;4.45;1.92;;;;;;;0.88;87.23;93670.31;4819329;29;20165;-59
2021/11/28 05:35:52;;;;;;;3.47;2.08;;;;;;;0.91;87.79;93677.66;4822497;29;20501;-60
2021/11/28 05:38:27;;;;;;;2.42;1.70;;;;;;;0.83;88.13;93683.81;4809225;29;20196;-58
2021/11/28 05:40:54;;;;;;;3.35;1.90;;;;;;;0.92;87.56;93678.44;4837588;29;20050;-58
2021/11/28 05:43:21;;;;;;;4.68;1.95;;;;;;;0.90;87.42;93683.28;4817229;29;20046;-58
2021/11/28 05:45:48;;;;;;;3.92;2.53;;;;;;;0.79;87.55;93684.78;4819403;29;20054;-59
2021/11/28 05:48:36;;;;;;;3.58;2.33;;;;;;;0.73;87.48;93689.53;4828273;29;20102;-59
2021/11/28 05:51:25;;;;;;;3.50;2.03;;;;;;;0.74;87.92;93684.97;4821213;29;20062;-59
2021/11/28 05:53:52;;;;;;;6.13;2.35;;;;;;;0.68;88.31;93689.72;4826824;29;20062;-59
2021/11/28 05:56:19;;;;;;;5.18;2.60;;;;;;;0.69;88.51;93694.72;4830775;29;20153;-60
2021/11/28 05:58:50;;;;;;;4.13;2.25;;;;;;;1.00;87.33;93693.53;4807891;29;20148;-59
2021/11/28 06:01:17;;;;;;;4.47;2.20;;;;;;;1.38;85.80;93689.91;4841411;29;20068;-59
2021/11/28 06:03:44;;;;;;;4.88;2.30;;;;;;;1.09;86.66;93693.47;4837094;29;20038;-59
2021/11/28 06:06:43;;;;;;;3.45;2.10;;;;;;;1.27;86.16;93692.22;4848163;29;20494;-59
2021/11/28 06:09:18;;;;;;;4.20;2.30;;;;;;;1.03;87.05;93692.88;4818936;29;20050;-60
2021/11/28 06:11:46;;;;;;;5.72;2.10;;;;;;;0.83;87.68;93683.81;4837392;29;20464;-58
2021/11/28 06:14:13;;;;;;;4.60;2.00;;;;;;;1.30;86.52;93690.75;4817486;29;20104;-61
2021/11/28 06:17:03;;;;;;;3.75;2.08;;;;;;;1.61;84.95;93687.63;4823733;29;20110;-60
2021/11/28 06:19:54;;;;;;;4.68;2.03;;;;;;;1.68;84.68;93687.88;4835020;29;20066;-60
2021/11/28 06:22:44;;;;;;;6.05;2.17;;;;;;;1.61;84.61;93687.63;4829975;29;20089;-60
2021/11/28 06:25:11;;;;;;;5.75;2.60;;;;;;;1.47;85.79;93685.28;4824634;29;20072;-60
2021/11/28 06:27:55;;;;;;;3.90;2.08;;;;;;;0.97;88.03;93678.22;4831737;29;20121;-59
2021/11/28 06:30:22;;;;;;;4.43;2.08;;;;;;;1.55;86.61;93686.28;4846215;29;20055;-60
2021/11/28 06:33:11;;;;;;;3.83;2.03;;;;;;;1.97;84.30;93686.91;4827939;29;20042;-60
2021/11/28 06:36:02;;;;;;;4.20;2.05;;;;;;;1.55;86.23;93688.94;4823078;29;20058;-60
2021/11/28 06:38:56;;;;;;;3.10;2.10;;;;;;;0.68;89.34;93695.03;4826053;29;20172;-58
2021/11/28 06:41:42;;;;;;;5.35;2.30;;;;;;;1.00;89.29;93703.41;4819764;29;20042;-60
2021/11/28 06:44:09;;;;;;;3.63;2.08;;;;;;;0.87;90.30;93691.91;4843057;29;20096;-60
2021/11/28 06:46:36;;;;;;;3.70;2.13;;;;;;;0.47;92.74;93697.69;4827332;29;20122;-60
2021/11/28 06:49:04;;;;;;;6.05;2.50;;;;;;;0.07;95.75;93690.09;4825147;29;20042;-59
2021/11/28 06:51:38;;;;;;;5.47;2.35;;;;;;;0.32;95.52;93704.34;4818214;29;20053;-58
2021/11/28 06:54:15;;;;;;;4.60;2.47;;;;;;;0.53;93.65;93715.03;4815991;29;20042;-60
2021/11/28 06:56:48;;;;;;;6.03;2.40;;;;;;;0.73;93.17;93707.38;4823717;29;20059;-59
2021/11/28 06:59:18;;;;;;;4.18;2.17;;;;;;;0.91;91.15;93712.25;4826942;29;20744;-58
2021/11/28 07:01:46;;;;;;;5.25;2.50;;;;;;;0.85;91.69;93716.22;4822383;29;20058;-60
2021/11/28 07:04:33;;;;;;;4.05;2.40;;;;;;;0.52;94.50;93705.50;4815116;29;20122;-59
2021/11/28 07:07:06;;;;;;;5.82;2.45;;;;;;;0.86;92.19;93720.44;4832288;29;20046;-60
2021/11/28 07:09:36;;;;;;;5.38;2.55;;;;;;;0.91;92.20;93714.94;4815541;29;20101;-60
2021/11/28 07:12:05;;;;;;;6.28;2.80;;;;;;;1.08;90.94;93727.31;4844732;29;20066;-57
2021/11/28 07:14:35;;;;;;;4.88;2.70;;;;;;;0.49;94.11;93724.75;4815036;29;20078;-60
2021/11/28 07:17:03;;;;;;;7.22;2.75;;;;;;;0.90;93.06;93725.88;4836464;29;20052;-59
2021/11/28 07:19:33;;;;;;;5.25;2.92;;;;;;;0.95;91.47;93723.03;4826383;29;20050;-61
2021/11/28 07:22:06;;;;;;;5.60;2.40;;;;;;;0.66;93.22;93732.63;4819636;29;20060;-59
2021/11/28 07:24:37;;;;;;;4.18;2.67;;;;;;;0.90;92.83;93737.31;4819501;29;20035;-60
2021/11/28 07:27:04;;;;;;;6.07;3.20;;;;;;;0.82;93.38;93732.84;4839068;29;20086;-61
2021/11/28 07:29:31;;;;;;;6.07;3.13;;;;;;;1.17;91.65;93733.34;4824772;29;20046;-60
2021/11/28 07:31:58;;;;;;;8.02;3.40;;;;;;;0.81;92.64;93733.16;4837830;29;20046;-61
2021/11/28 07:34:44;;;;;;;10.07;4.43;;;;;;;0.66;92.98;93729.19;4832576;29;20444;-56
2021/11/28 07:37:36;;;;;;;6.03;2.83;;;;;;;0.54;93.48;93737.88;4821761;29;20074;-58
2021/11/28 07:40:04;;;;;;;6.20;2.75;;;;;;;0.92;91.78;93729.78;4839502;29;20421;-58
2021/11/28 07:42:35;;;;;;;7.75;2.15;;;;;;;0.38;94.44;93723.56;4834742;29;20072;-58
2021/11/28 07:45:20;;;;;;;4.15;1.92;;;;;;;0.47;93.05;93729.63;4823556;29;20095;-60
2021/11/28 07:48:16;;;;;;;4.90;1.90;;;;;;;0.63;92.34;93729.84;4822369;29;20050;-60
2021/11/28 07:51:06;;;;;;;4.30;2.05;;;;;;;0.11;95.87;93733.56;4820016;29;20125;-61
2021/11/28 07:53:33;;;;;;;2.83;1.55;;;;;;;0.53;94.95;93728.34;4813290;29;20079;-59
2021/11/28 07:56:00;;;;;;;4.22;1.98;;;;;;;0.24;95.72;93726.47;4840680;29;20042;-61
2021/11/28 07:58:50;;;;;;;6.15;2.20;;;;;;;0.16;96.18;93724.59;4820639;29;20110;-60
2021/11/28 08:01:21;;;;;;;3.17;1.80;;;;;;;-0.08;97.94;93725.97;4810276;29;20133;-59
2021/11/28 08:03:54;;;;;;;3.70;1.98;;;;;;;-0.14;98.67;93732.53;4843440;29;20038;-59
2021/11/28 08:06:50;;;;;;;2.88;1.80;;;;;;;1.25;92.78;93728.28;4832554;29;20513;-60
2021/11/28 08:09:35;;;;;;;4.32;1.60;;;;;;;0.41;95.98;93725.56;4815267;29;20402;-58
2021/11/28 08:12:11;;;;;;;3.55;1.80;;;;;;;0.07;97.55;93723.88;4818236;29;20042;-60
2021/11/28 08:14:38;;;;;;;3.85;1.77;;;;;;;0.25;96.11;93721.91;4820770;29;20076;-60
2021/11/28 08:17:05;;;;;;;3.88;1.80;;;;;;;-0.05;97.85;93733.31;4826908;29;20057;-59
2021/11/28 08:19:32;;;;;;;4.22;1.90;;;;;;;0.17;98.82;93734.94;4822780;29;20118;-59
2021/11/28 08:22:00;;;;;;;5.00;1.70;;;;;;;0.98;92.88;93738.38;4817015;29;20128;-59
2021/11/28 08:24:27;;;;;;;1.92;1.13;;;;;;;1.30;90.64;93734.19;4822263;29;20084;-60
2021/11/28 08:26:54;;;;;;;3.40;1.92;;;;;;;1.39;90.98;93737.53;4834907;29;20046;-59
2021/11/28 08:29:21;;;;;;;6.30;2.38;;;;;;;1.62;87.75;93739.81;4816959;29;20057;-60
2021/11/28 08:31:49;;;;;;;2.22;1.30;;;;;;;1.84;87.39;93731.44;4835533;29;20484;-59
2021/11/28 08:34:34;;;;;;;2.47;1.50;;;;;;;1.85;87.83;93737.53;4815097;29;20043;-59
2021/11/28 08:37:33;;;;;;;3.05;1.40;;;;;;;1.54;89.39;93741.47;4823830;29;20074;-61
2021/11/28 08:40:02;;;;;;;3.75;1.60;;;;;;;1.80;88.51;93735.88;4819311;29;20046;-60
2021/11/28 08:42:32;;;;;;;3.53;1.73;;;;;;;1.68;87.81;93743.84;4816455;29;20100;-58
2021/11/28 08:45:01;;;;;;;5.70;1.70;;;;;;;1.73;87.49;93740.22;4822110;29;20050;-59
2021/11/28 08:47:28;;;;;;;2.17;1.65;;;;;;;1.68;88.57;93743.06;4833102;29;20054;-60
2021/11/28 08:49:55;;;;;;;3.05;1.55;;;;;;;1.67;88.58;93741.53;4822834;29;20070;-60
2021/11/28 08:52:22;;;;;;;2.75;1.55;;;;;;;1.46;89.95;93739.66;4830552;29;20484;-60
2021/11/28 08:54:49;;;;;;;5.60;2.15;;;;;;;1.53;89.31;93747.94;4813025;29;20074;-60
2021/11/28 08:57:16;;;;;;;3.60;1.73;;;;;;;1.43;89.81;93745.66;4821437;29;20046;-59
2021/11/28 08:59:44;;;;;;;5.55;2.30;;;;;;;1.35;90.63;93744.63;4844244;29;20096;-60
2021/11/28 09:02:11;;;;;;;2.90;1.48;;;;;;;1.34;90.72;93752.97;4816505;29;20053;-62
2021/11/28 09:04:38;;;;;;;2.58;1.77;;;;;;;1.33;90.73;93757.50;4804530;29;20051;-61
2021/11/28 09:07:05;;;;;;;3.63;1.90;;;;;;;1.59;89.89;93759.94;4809225;29;20055;-62
2021/11/28 09:09:33;;;;;;;4.25;1.90;;;;;;;1.89;88.94;93765.13;4806547;29;20053;-62
2021/11/28 09:12:00;;;;;;;4.80;1.85;;;;;;;1.82;88.94;93764.88;4810124;29;20047;-63
2021/11/28 09:14:27;;;;;;;4.82;2.20;;;;;;;1.39;90.45;93769.50;4809312;29;20130;-62
2021/11/28 09:16:54;;;;;;;5.75;2.00;;;;;;;1.66;89.62;93766.59;4808838;29;20057;-62
2021/11/28 09:19:32;;;;;;;2.83;1.70;;;;;;;1.58;89.17;93769.03;4813599;29;20085;-60
2021/11/28 09:22:01;;;;;;;2.63;1.65;;;;;;;2.19;86.58;93762.28;4820845;29;20125;-57
2021/11/28 09:24:37;;;;;;;4.13;2.20;;;;;;;1.91;88.04;93759.44;4809310;29;20493;-56
2021/11/28 09:27:12;;;;;;;5.90;2.50;;;;;;;1.54;89.25;93759.34;4807084;29;20078;-56
2021/11/28 09:29:46;;;;;;;3.75;1.90;;;;;;;1.49;89.18;93765.66;4819982;29;20559;-56
2021/11/28 09:32:16;;;;;;;3.08;1.90;;;;;;;1.61;88.84;93757.72;4820968;29;20085;-55
2021/11/28 09:34:43;;;;;;;3.60;2.00;;;;;;;1.82;88.36;93756.88;4814567;29;20043;-63
2021/11/28 09:37:11;;;;;;;5.38;2.42;;;;;;;1.59;89.64;93757.28;4822286;29;20058;-52
2021/11/28 09:39:42;;;;;;;8.82;4.68;;;;;;;1.75;89.50;93756.63;4815577;29;20397;-51
2021/11/28 09:42:11;;;;;;;3.85;2.70;;;;;;;2.26;86.93;93751.84;4809756;29;20042;-57
2021/11/28 09:44:40;;;;;;;5.35;3.15;;;;;;;1.82;88.47;93747.00;4819704;29;20057;-57
2021/11/28 09:47:10;;;;;;;4.05;2.20;;;;;;;2.14;86.96;93746.50;4818515;29;20070;-63
2021/11/28 09:49:44;;;;;;;6.60;2.83;;;;;;;1.72;88.38;93759.97;4822407;29;20379;-57
2021/11/28 09:52:18;;;;;;;3.90;2.30;;;;;;;1.48;89.33;93748.13;4808570;29;20118;-56
2021/11/28 09:54:46;;;;;;;4.00;1.92;;;;;;;1.32;88.70;93747.16;4824844;29;20041;-60
2021/11/28 09:57:22;;;;;;;5.22;2.30;;;;;;;1.31;89.27;93746.41;4807027;29;20051;-62
2021/11/28 09:59:51;;;;;;;4.68;2.38;;;;;;;1.17;88.97;93746.66;4806759;29;20066;-53
2021/11/28 10:02:21;;;;;;;4.22;2.13;;;;;;;1.12;89.41;93749.53;4817751;29;20145;-51
2021/11/28 10:04:50;;;;;;;4.38;2.47;;;;;;;1.24;89.76;93751.47;4820229;29;20125;-53
2021/11/28 10:07:18;;;;;;;3.85;2.17;;;;;;;1.20;89.47;93742.56;4812634;29;20065;-54
2021/11/28 10:09:46;;;;;;;3.05;1.98;;;;;;;1.31;89.12;93737.63;4810202;29;20172;-51
2021/11/28 10:12:21;;;;;;;3.45;1.98;;;;;;;1.51;88.84;93744.78;4835650;29;20431;-55
2021/11/28 10:15:01;;;;;;;3.67;2.15;;;;;;;1.38;89.04;93740.53;4814252;29;20546;-53
2021/11/28 10:17:31;;;;;;;5.32;2.25;;;;;;;1.37;89.01;93745.09;4811016;29;20051;-52
2021/11/28 10:20:01;;;;;;;4.40;2.80;;;;;;;1.64;88.12;93738.41;4811088;29;20050;-51
2021/11/28 10:22:28;;;;;;;4.43;2.40;;;;;;;1.78;88.36;93738.09;4817818;29;20054;-55
2021/11/28 10:25:11;;;;;;;4.25;2.42;;;;;;;1.70;89.91;93735.53;4812187;29;20046;-54
2021/11/28 10:27:47;;;;;;;3.88;2.33;;;;;;;2.23;86.79;93736.50;4813799;29;20062;-54
2021/11/28 10:30:38;;;;;;;5.35;2.55;;;;;;;1.85;88.13;93734.88;4815269;29;20046;-50
2021/11/28 10:33:12;;;;;;;7.90;2.50;;;;;;;1.94;87.79;93729.47;4806758;29;20069;-52
2021/11/28 10:36:10;;;;;;;4.10;2.45;;;;;;;2.05;86.47;93727.94;4816660;29;20054;-52
2021/11/28 10:38:40;;;;;;;5.28;2.10;;;;;;;1.56;86.41;93728.63;4817707;29;20038;-50
2021/11/28 10:41:25;;;;;;;5.93;2.25;;;;;;;1.26;90.27;93722.59;4822141;29;20050;-52
2021/11/28 10:43:53;;;;;;;4.10;2.20;;;;;;;1.53;88.92;93726.59;4807154;29;20057;-50
2021/11/28 10:46:30;;;;;;;5.13;2.70;;;;;;;1.64;88.48;93713.63;4820229;29;20058;-53
2021/11/28 10:49:14;;;;;;;3.65;2.35;;;;;;;1.47;89.01;93724.47;4820281;29;20082;-50
2021/11/28 10:51:46;;;;;;;;;;;;;;;1.70;88.02;93716.88;4821228;29;20432;-52
2021/11/28 10:54:35;;;;;;;4.05;2.35;;;;;;;1.82;88.07;93711.53;4819787;29;19933;-52
2021/11/28 10:57:08;;;;;;;3.47;2.40;;;;;;;2.31;85.80;93714.28;4811468;29;20074;-53
2021/11/28 10:59:37;;;;;;;3.60;2.15;;;;;;;1.66;87.47;93703.44;4821910;29;20046;-52
2021/11/28 11:02:20;;;;;;;3.83;2.15;;;;;;;1.19;90.54;93710.94;4823018;29;20066;-51
2021/11/28 11:04:48;;;;;;;3.70;2.47;;;;;;;1.59;89.25;93711.97;4817617;29;20039;-51
2021/11/28 11:07:17;;;;;;;3.10;1.90;;;;;;;1.46;89.68;93712.25;4823156;29;20046;-51
2021/11/28 11:09:47;;;;;;;5.00;2.55;;;;;;;1.39;89.58;93710.88;4811227;29;20047;-53
2021/11/28 11:12:20;;;;;;;4.00;2.35;;;;;;;1.25;90.30;93710.41;4813007;29;20057;-54
2021/11/28 11:14:52;;;;;;;3.67;2.33;;;;;;;1.25;91.25;93714.94;4825143;29;20039;-54
2021/11/28 11:17:31;;;;;;;3.75;2.30;;;;;;;1.21;91.79;93709.50;4825846;29;20472;-51
2021/11/28 11:19:59;;;;;;;5.93;3.20;;;;;;;1.07;92.24;93704.47;4813146;29;20053;-50
2021/11/28 11:22:29;;;;;;;5.90;3.10;;;;;;;1.24;92.25;93708.06;4817882;29;20491;-51
2021/11/28 11:25:06;;;;;;;5.75;2.95;;;;;;;1.03;92.90;93708.88;4814980;29;20046;-54
2021/11/28 11:27:36;;;;;;;6.55;3.00;;;;;;;0.89;93.96;93709.13;4809972;29;20069;-53
2021/11/28 11:30:14;;;;;;;4.78;2.15;;;;;;;0.75;94.63;93710.47;4815593;29;20130;-50
2021/11/28 11:32:54;;;;;;;7.00;2.83;;;;;;;0.66;95.54;93719.31;4817426;29;20441;-56
2021/11/28 11:35:27;;;;;;;6.70;2.78;;;;;;;0.82;94.90;93718.75;4793484;29;20050;-50
2021/11/28 11:38:05;;;;;;;4.07;2.50;;;;;;;1.16;94.24;93713.13;4815260;29;20137;-54
2021/11/28 11:40:33;;;;;;;4.40;2.70;;;;;;;1.33;93.34;93711.41;4815204;29;20050;-51
2021/11/28 11:43:02;;;;;;;6.40;2.90;;;;;;;1.05;94.38;93709.31;4819320;29;20065;-50
2021/11/28 11:45:35;;;;;;;5.57;2.55;;;;;;;1.14;93.66;93718.03;4804785;29;20050;-50
2021/11/28 11:48:05;;;;;;;4.47;2.80;;;;;;;1.14;93.18;93720.69;4805135;29;20055;-50
2021/11/28 11:50:35;;;;;;;5.55;3.00;;;;;;;1.02;93.73;93717.97;4805242;29;20509;-51
2021/11/28 11:53:06;;;;;;;4.80;2.47;;;;;;;0.97;94.41;93717.38;4784079;29;1140305;-54
2021/11/28 11:55:40;;;;;;;5.82;2.83;;;;;;;0.82;94.81;93708.09;4815528;29;20067;-52
2021/11/28 11:58:33;;;;;;;5.30;2.88;;;;;;;0.87;94.49;93699.91;4805706;29;20055;-54
2021/11/28 12:01:03;;;;;;;6.53;3.45;;;;;;;0.89;94.39;93703.03;4805812;29;20054;-52
2021/11/28 12:03:50;;;;;;;9.73;5.78;;;;;;;0.93;94.79;93703.94;4805235;29;20406;-50
2021/11/28 12:06:38;;;;;;;8.07;3.90;;;;;;;1.15;93.05;93706.25;4823308;29;20061;-50
2021/11/28 12:09:21;;;;;;;7.28;3.90;;;;;;;1.44;92.13;93707.25;4823690;29;20066;-53